Texas Township, Illinois
Current Conditions -  °F | °C
As of 9:15 AM on Thursday 30 Oct 2014 (Local Time) from KAAA Reporting Station
Clear Clear  
Wind Chill: 38°   Ceiling: Unl
Heat Index: 42°   Visibility: 10mi
Dew Point: 38°   Wind: 8mph
Humidity: 83%   Direction: 180°S
Pressure: 30.15"   Gusts: NA
Location:  40.143°N, 88.9637°W
Report Text: KAAA 301415Z AUTO 18007KT 10SM CLR 06/03 A3015 RMK AO2 T00580032
Loading
Personal Weather Stations






























Interactive Weather Map
Tropical Storm Tracking
New forecast layout! Learn more

10-Day Weather Forecast

Advertisements
Track Severe Weather on mobile